createdAt,value
2023-03-16T12:49:12.984Z,96569.97
2023-03-16T12:51:45.468Z,96573.97
2023-03-16T12:54:25.709Z,96576.03
2023-03-16T12:57:07.811Z,96578.03
2023-03-16T12:59:43.657Z,96572.78
2023-03-16T13:02:31.773Z,96565.16
2023-03-16T13:05:18.537Z,96558.75
2023-03-16T13:07:52.699Z,96556.25
2023-03-16T13:10:25.784Z,96550.31
2023-03-16T13:13:18.119Z,96557.78
2023-03-16T13:15:58.520Z,96553.97
2023-03-16T13:18:41.770Z,96555.72
2023-03-16T13:21:21.601Z,96556.84
2023-03-16T13:24:13.865Z,96557.41
2023-03-16T13:27:29.319Z,96550.19
2023-03-16T13:30:18.290Z,96551.94
2023-03-16T13:32:55.233Z,96539.34
2023-03-16T13:35:30.412Z,96541.84
2023-03-16T13:38:06.564Z,96545.19
2023-03-16T13:40:48.041Z,96539.22
2023-03-16T13:43:31.860Z,96544.53
2023-03-16T13:46:19.307Z,96545.19
2023-03-16T13:48:51.268Z,96551.16
2023-03-16T13:51:23.817Z,96546.22
2023-03-16T13:53:55.552Z,96545.59
2023-03-16T13:56:29.253Z,96539.91
2023-03-16T13:59:01.020Z,96533.78
2023-03-16T14:01:33.325Z,96528.25
2023-03-16T14:04:13.680Z,96533.94
2023-03-16T14:06:58.203Z,96527.13
2023-03-16T14:09:34.511Z,96520.84
2023-03-16T14:12:06.351Z,96523.75
2023-03-16T14:14:41.331Z,96511.25
2023-03-16T14:17:21.536Z,96514.50
2023-03-16T14:19:59.730Z,96515.19
2023-03-16T14:22:37.147Z,96507.91
2023-03-16T14:25:25.517Z,96507.97
2023-03-16T14:28:06.424Z,96515.28
2023-03-16T14:30:38.218Z,96509.19
2023-03-16T14:33:27.409Z,96509.59
2023-03-16T14:36:09.764Z,96507.53
2023-03-16T14:38:43.839Z,96509.25
2023-03-16T14:41:26.344Z,96512.69
2023-03-16T14:44:00.782Z,96503.88
2023-03-16T14:46:40.432Z,96505.06
2023-03-16T14:49:22.775Z,96506.88
2023-03-16T14:52:02.686Z,96512.25
2023-03-16T14:54:34.358Z,96521.84
2023-03-16T14:57:06.304Z,96516.88
2023-03-16T14:59:38.184Z,96509.91
2023-03-16T15:02:22.226Z,96513.09
2023-03-16T15:04:55.106Z,96509.88
2023-03-16T15:07:34.563Z,96502.66
2023-03-16T15:10:26.909Z,96497.59
2023-03-16T15:13:06.174Z,96497.72
2023-03-16T15:15:37.721Z,96487.31
2023-03-16T15:18:09.759Z,96484.06
2023-03-16T15:20:45.477Z,96472.56
2023-03-16T15:23:17.469Z,96474.41
2023-03-16T15:25:51.719Z,96469.00
2023-03-16T15:28:25.516Z,96464.47
2023-03-16T15:30:59.837Z,96471.28
2023-03-16T15:33:32.611Z,96469.50
2023-03-16T15:36:18.648Z,96477.88
2023-03-16T15:38:54.345Z,96477.50
2023-03-16T15:41:30.106Z,96470.25
2023-03-16T15:44:12.075Z,96473.31
2023-03-16T15:46:43.660Z,96470.25
2023-03-16T15:49:15.480Z,96477.78
2023-03-16T15:51:47.020Z,96471.56
2023-03-16T15:54:18.551Z,96477.44
2023-03-16T15:56:54.519Z,96473.63
2023-03-16T15:59:30.939Z,96470.25
2023-03-16T16:02:03.799Z,96467.09
2023-03-16T16:04:35.474Z,96470.28
2023-03-16T16:07:10.918Z,96459.34
2023-03-16T16:09:42.905Z,96459.66
2023-03-16T16:12:17.208Z,96456.59
2023-03-16T16:14:48.972Z,96444.09
2023-03-16T16:17:36.559Z,96448.84
2023-03-16T16:20:35.292Z,96448.72
2023-03-16T16:23:08.259Z,96450.78
2023-03-16T16:25:42.365Z,96450.81
2023-03-16T16:28:20.381Z,96452.97
2023-03-16T16:30:52.110Z,96454.13
2023-03-16T16:33:24.902Z,96459.59
2023-03-16T16:36:01.587Z,96450.41
2023-03-16T16:38:33.558Z,96461.19
2023-03-16T16:41:09.139Z,96460.09
2023-03-16T16:43:46.633Z,96468.72
2023-03-16T16:46:22.577Z,96465.53
2023-03-16T16:49:01.736Z,96467.50
2023-03-16T16:51:34.321Z,96466.03
2023-03-16T16:54:21.943Z,96468.75
2023-03-16T16:56:56.390Z,96462.75
2023-03-16T16:59:34.483Z,96458.78
2023-03-16T17:02:43.610Z,96463.56
2023-03-16T17:05:27.997Z,96469.13
2023-03-16T17:08:04.062Z,96466.25
2023-03-16T17:10:37.833Z,96470.69
2023-03-16T17:13:40.134Z,96469.47
2023-03-16T17:16:16.776Z,96469.78
2023-03-16T17:18:49.486Z,96464.91
2023-03-16T17:21:25.191Z,96462.47
2023-03-16T17:23:57.536Z,96468.22
2023-03-16T17:26:38.189Z,96459.22
2023-03-16T17:29:29.046Z,96454.28
2023-03-16T17:32:03.399Z,96453.97
2023-03-16T17:34:35.425Z,96455.09
2023-03-16T17:37:16.409Z,96446.34
2023-03-16T17:39:48.173Z,96448.50
2023-03-16T17:42:22.583Z,96449.16
2023-03-16T17:44:54.263Z,96447.75
2023-03-16T17:47:29.883Z,96450.59
2023-03-16T17:50:01.457Z,96455.22
2023-03-16T17:52:33.304Z,96441.97
2023-03-16T17:55:05.443Z,96443.66
2023-03-16T17:57:37.047Z,96440.13
2023-03-16T18:00:35.878Z,96444.75
2023-03-16T18:03:17.314Z,96445.28
2023-03-16T18:05:49.149Z,96451.72
2023-03-16T18:08:30.078Z,96450.22
2023-03-16T18:11:07.706Z,96436.72
2023-03-16T18:13:41.056Z,96427.63
2023-03-16T18:16:19.996Z,96435.78
2023-03-16T18:18:55.233Z,96442.94
2023-03-16T18:21:27.119Z,96440.16
2023-03-16T18:23:59.358Z,96439.41
2023-03-16T18:26:30.961Z,96448.06
2023-03-16T18:29:03.578Z,96451.63
2023-03-16T18:31:35.699Z,96450.13
2023-03-16T18:34:07.807Z,96446.53
2023-03-16T18:36:41.048Z,96448.53
2023-03-16T18:39:20.449Z,96452.88
2023-03-16T18:41:52.696Z,96452.59
2023-03-16T18:44:29.818Z,96452.09
2023-03-16T18:47:03.269Z,96455.16
2023-03-16T18:49:36.872Z,96456.69
2023-03-16T18:52:22.760Z,96459.25
2023-03-16T18:54:55.649Z,96450.06
2023-03-16T18:57:28.776Z,96457.09
2023-03-16T19:00:00.304Z,96455.03
2023-03-16T19:02:41.712Z,96458.09
2023-03-16T19:05:17.439Z,96456.53
2023-03-16T19:07:52.864Z,96450.91
2023-03-16T19:10:36.726Z,96453.38
2023-03-16T19:13:19.344Z,96450.78
2023-03-16T19:15:54.763Z,96448.19
2023-03-16T19:18:26.407Z,96447.06
2023-03-16T19:20:58.020Z,96446.56
2023-03-16T19:23:35.534Z,96445.13
2023-03-16T19:26:08.085Z,96454.66
2023-03-16T19:28:42.624Z,96445.47
2023-03-16T19:31:25.859Z,96434.28
2023-03-16T19:33:58.556Z,96436.22
2023-03-16T19:36:32.274Z,96438.78
2023-03-16T19:39:04.186Z,96441.75
2023-03-16T19:41:38.017Z,96433.03
2023-03-16T19:44:26.126Z,96432.06
2023-03-16T19:46:59.123Z,96427.91
2023-03-16T19:49:30.920Z,96437.06
2023-03-16T19:52:02.497Z,96434.03
2023-03-16T19:54:35.073Z,96431.94
2023-03-16T19:57:15.007Z,96429.84
2023-03-16T19:59:53.138Z,96427.72
2023-03-16T20:02:40.286Z,96432.75
2023-03-16T20:05:25.586Z,96430.41
2023-03-16T20:07:58.768Z,96434.84
2023-03-16T20:10:32.654Z,96426.72
2023-03-16T20:13:04.474Z,96429.84
2023-03-16T20:15:37.529Z,96427.06
2023-03-16T20:18:16.431Z,96417.63
2023-03-16T20:20:48.090Z,96421.28
2023-03-16T20:23:24.597Z,96415.06
2023-03-16T20:26:02.169Z,96420.28
2023-03-16T20:28:36.936Z,96419.50
2023-03-16T20:31:18.237Z,96414.47
2023-03-16T20:33:52.318Z,96410.47
2023-03-16T20:36:25.345Z,96413.25
2023-03-16T20:38:56.891Z,96414.63
2023-03-16T20:41:32.324Z,96412.66
2023-03-16T20:44:04.792Z,96410.63
2023-03-16T20:46:41.128Z,96408.00
2023-03-16T20:49:21.907Z,96404.50
2023-03-16T20:51:54.140Z,96398.78
2023-03-16T20:54:25.893Z,96395.31
2023-03-16T20:56:58.009Z,96402.72
2023-03-16T20:59:30.383Z,96392.09
2023-03-16T21:02:03.196Z,96392.78
2023-03-16T21:04:34.883Z,96388.91
2023-03-16T21:07:06.642Z,96393.91
2023-03-16T21:09:38.483Z,96392.81
2023-03-16T21:12:27.056Z,96392.66
2023-03-16T21:15:00.369Z,96380.53
2023-03-16T21:17:37.138Z,96383.47
2023-03-16T21:20:20.678Z,96384.81
2023-03-16T21:22:52.429Z,96387.50
2023-03-16T21:25:32.381Z,96389.03
2023-03-16T21:28:05.163Z,96388.06
2023-03-16T21:30:45.989Z,96386.34
2023-03-16T21:33:32.630Z,96378.84
2023-03-16T21:36:12.366Z,96382.75
2023-03-16T21:38:45.960Z,96383.56
2023-03-16T21:41:17.692Z,96391.09
2023-03-16T21:43:54.385Z,96380.63
2023-03-16T21:46:26.451Z,96379.91
2023-03-16T21:48:58.084Z,96374.47
2023-03-16T21:51:31.519Z,96374.47
2023-03-16T21:54:03.896Z,96366.38
2023-03-16T21:56:36.199Z,96367.25
2023-03-16T21:59:08.053Z,96362.66
2023-03-16T22:01:50.902Z,96359.59
2023-03-16T22:04:32.335Z,96366.47
2023-03-16T22:07:11.586Z,96360.78
2023-03-16T22:09:43.278Z,96357.75
2023-03-16T22:12:14.921Z,96354.22
2023-03-16T22:14:46.472Z,96358.81
2023-03-16T22:17:22.527Z,96364.41
2023-03-16T22:19:54.305Z,96361.34
2023-03-16T22:22:33.388Z,96360.22
2023-03-16T22:25:18.832Z,96361.97
2023-03-16T22:27:52.078Z,96358.44
2023-03-16T22:30:27.631Z,96357.16
2023-03-16T22:33:00.399Z,96351.50
2023-03-16T22:35:36.682Z,96353.47
2023-03-16T22:38:12.496Z,96342.41
2023-03-16T22:40:44.183Z,96354.09
2023-03-16T22:43:22.566Z,96348.84
2023-03-16T22:45:56.495Z,96341.75
2023-03-16T22:48:30.908Z,96341.31
2023-03-16T22:51:04.767Z,96338.56
2023-03-16T22:53:41.405Z,96330.03
2023-03-16T22:56:13.144Z,96336.34
2023-03-16T22:58:53.428Z,96341.19
2023-03-16T23:01:39.314Z,96338.91
2023-03-16T23:04:30.139Z,96331.88
2023-03-16T23:07:02.108Z,96327.16
2023-03-16T23:09:33.700Z,96327.97
2023-03-16T23:12:14.434Z,96317.38
2023-03-16T23:14:46.149Z,96311.94
2023-03-16T23:17:22.115Z,96315.50
2023-03-16T23:19:54.453Z,96326.63
2023-03-16T23:22:26.490Z,96321.25
2023-03-16T23:24:57.999Z,96318.88
2023-03-16T23:27:29.564Z,96329.03
2023-03-16T23:30:01.288Z,96331.63
2023-03-16T23:32:33.080Z,96324.69
2023-03-16T23:35:15.386Z,96318.81
2023-03-16T23:37:48.227Z,96325.75
2023-03-16T23:40:21.591Z,96317.97
2023-03-16T23:42:56.165Z,96322.56
2023-03-16T23:45:43.188Z,96314.78
2023-03-16T23:48:19.541Z,96323.13
2023-03-16T23:50:55.067Z,96321.31
2023-03-16T23:53:26.633Z,96317.56
2023-03-16T23:55:58.282Z,96319.34
2023-03-16T23:58:29.767Z,96308.94
